createdAt,value
2022-11-22T00:00:11.062Z,97135.82
2022-11-22T00:01:11.067Z,97135.48
2022-11-22T00:02:11.136Z,97136.35
2022-11-22T00:03:11.058Z,97136.48
2022-11-22T00:04:11.068Z,97140.21
2022-11-22T00:05:11.060Z,97141.14
2022-11-22T00:06:11.057Z,97135.52
2022-11-22T00:07:11.073Z,97136.99
2022-11-22T00:08:11.063Z,97135.69
2022-11-22T00:09:11.054Z,97132.91
2022-11-22T00:10:11.062Z,97137.34
2022-11-22T00:11:11.064Z,97133.44
2022-11-22T00:12:11.058Z,97136.46
2022-11-22T00:13:11.067Z,97137.70
2022-11-22T00:14:11.059Z,97134.40
2022-11-22T00:15:11.060Z,97132.69
2022-11-22T00:16:11.069Z,97134.62
2022-11-22T00:17:11.061Z,97138.54
2022-11-22T00:18:11.062Z,97138.96
2022-11-22T00:19:11.068Z,97136.88
2022-11-22T00:20:11.058Z,97141.49
2022-11-22T00:21:11.066Z,97136.79
2022-11-22T00:22:11.067Z,97143.43
2022-11-22T00:23:11.057Z,97138.53
2022-11-22T00:24:12.063Z,97141.14
2022-11-22T00:25:11.078Z,97135.96
2022-11-22T00:26:15.072Z,97142.15
2022-11-22T00:27:11.063Z,97137.02
2022-11-22T00:28:11.070Z,97137.25
2022-11-22T00:29:11.065Z,97139.53
2022-11-22T00:30:11.065Z,97137.80
2022-11-22T00:31:11.068Z,97133.62
2022-11-22T00:32:11.065Z,97133.52
2022-11-22T00:33:11.063Z,97134.28
2022-11-22T00:34:11.069Z,97133.07
2022-11-22T00:35:11.062Z,97134.18
2022-11-22T00:36:11.059Z,97132.56
2022-11-22T00:37:11.071Z,97131.34
2022-11-22T00:38:11.060Z,97127.98
2022-11-22T00:39:11.059Z,97129.17
2022-11-22T00:40:11.071Z,97134.59
2022-11-22T00:41:11.063Z,97129.71
2022-11-22T00:42:11.064Z,97133.65
2022-11-22T00:43:11.070Z,97132.18
2022-11-22T00:44:11.062Z,97135.25
2022-11-22T00:45:11.062Z,97135.32
2022-11-22T00:46:11.070Z,97137.24
2022-11-22T00:47:11.063Z,97137.47
2022-11-22T00:48:11.062Z,97134.50
2022-11-22T00:49:11.072Z,97136.50
2022-11-22T00:50:11.068Z,97141.58
2022-11-22T00:51:11.059Z,97142.35
2022-11-22T00:52:11.066Z,97143.19
2022-11-22T00:53:11.063Z,97146.25
2022-11-22T00:54:11.063Z,97143.72
2022-11-22T00:55:11.062Z,97145.12
2022-11-22T00:56:11.064Z,97143.66
2022-11-22T00:57:11.063Z,97147.46
2022-11-22T00:58:11.063Z,97143.44
2022-11-22T00:59:11.064Z,97143.99
2022-11-22T01:00:11.061Z,97142.58
2022-11-22T01:01:11.129Z,97142.73
2022-11-22T01:02:11.063Z,97142.36
2022-11-22T01:03:12.062Z,97140.63
2022-11-22T01:04:11.063Z,97138.86
2022-11-22T01:05:11.066Z,97138.11
2022-11-22T01:06:11.062Z,97136.85
2022-11-22T01:07:11.100Z,97139.35
2022-11-22T01:08:11.066Z,97139.32
2022-11-22T01:09:11.064Z,97138.05
2022-11-22T01:10:11.065Z,97138.11
2022-11-22T01:11:11.065Z,97141.15
2022-11-22T01:12:11.060Z,97138.21
2022-11-22T01:13:11.070Z,97143.02
2022-11-22T01:14:11.067Z,97143.43
2022-11-22T01:15:11.062Z,97143.72
2022-11-22T01:16:11.067Z,97141.00
2022-11-22T01:17:11.073Z,97140.68
2022-11-22T01:18:11.065Z,97144.30
2022-11-22T01:19:11.065Z,97141.09
2022-11-22T01:20:11.066Z,97138.56
2022-11-22T01:21:11.063Z,97141.43
2022-11-22T01:22:11.065Z,97138.68
2022-11-22T01:23:11.084Z,97141.38
2022-11-22T01:24:11.062Z,97138.61
2022-11-22T01:25:11.066Z,97138.89
2022-11-22T01:26:11.065Z,97139.56
2022-11-22T01:27:11.061Z,97140.54
2022-11-22T01:28:11.064Z,97135.44
2022-11-22T01:29:11.088Z,97138.13
2022-11-22T01:30:11.066Z,97135.35
2022-11-22T01:31:11.064Z,97134.23
2022-11-22T01:32:11.066Z,97135.29
2022-11-22T01:33:11.064Z,97138.21
2022-11-22T01:34:11.064Z,97134.18
2022-11-22T01:35:11.074Z,97134.49
2022-11-22T01:36:11.063Z,97134.83
2022-11-22T01:37:11.066Z,97131.96
2022-11-22T01:38:11.067Z,97134.62
2022-11-22T01:39:11.065Z,97129.99
2022-11-22T01:40:11.071Z,97135.26
2022-11-22T01:41:11.068Z,97131.24
2022-11-22T01:42:11.063Z,97132.83
2022-11-22T01:43:18.070Z,97135.22
2022-11-22T01:44:17.075Z,97129.18
2022-11-22T01:45:19.067Z,97130.81
2022-11-22T01:46:21.067Z,97136.89
2022-11-22T01:47:14.064Z,97131.67
2022-11-22T01:48:21.075Z,97132.40
2022-11-22T01:49:17.068Z,97132.07
2022-11-22T01:50:16.064Z,97129.80
2022-11-22T01:51:20.067Z,97132.54
2022-11-22T01:52:19.078Z,97138.04
2022-11-22T01:53:15.070Z,97132.45
2022-11-22T01:54:14.067Z,97133.54
2022-11-22T01:55:12.068Z,97130.75
2022-11-22T01:56:12.080Z,97133.73
2022-11-22T01:57:14.063Z,97134.92
2022-11-22T01:58:11.069Z,97134.86
2022-11-22T01:59:15.076Z,97135.84
2022-11-22T02:00:14.069Z,97135.46
2022-11-22T02:01:11.205Z,97138.59
2022-11-22T02:02:11.069Z,97138.23
2022-11-22T02:03:11.068Z,97136.07
2022-11-22T02:04:11.066Z,97139.45
2022-11-22T02:05:15.077Z,97132.91
2022-11-22T02:06:11.067Z,97134.05
2022-11-22T02:07:20.180Z,97138.31
2022-11-22T02:08:19.065Z,97136.94
2022-11-22T02:09:13.072Z,97138.12
2022-11-22T02:10:11.069Z,97138.40
2022-11-22T02:11:11.067Z,97136.24
2022-11-22T02:12:11.068Z,97134.27
2022-11-22T02:13:11.074Z,97135.94
2022-11-22T02:14:11.067Z,97137.09
2022-11-22T02:15:11.076Z,97137.30
2022-11-22T02:16:11.072Z,97137.61
2022-11-22T02:17:11.067Z,97137.32
2022-11-22T02:18:11.068Z,97136.55
2022-11-22T02:19:15.067Z,97138.89
2022-11-22T02:20:11.067Z,97134.50
2022-11-22T02:21:11.068Z,97138.55
2022-11-22T02:22:21.070Z,97134.81
2022-11-22T02:23:21.078Z,97137.78
2022-11-22T02:24:18.066Z,97136.86
2022-11-22T02:25:19.068Z,97136.41
2022-11-22T02:26:11.075Z,97135.18
2022-11-22T02:27:11.068Z,97135.61
2022-11-22T02:28:11.065Z,97141.30
2022-11-22T02:29:11.077Z,97136.86
2022-11-22T02:30:11.067Z,97137.52
2022-11-22T02:31:15.070Z,97137.85
2022-11-22T02:32:11.073Z,97137.75
2022-11-22T02:33:11.071Z,97139.27
2022-11-22T02:34:11.076Z,97136.92
2022-11-22T02:35:19.072Z,97134.89
2022-11-22T02:36:12.083Z,97132.49
2022-11-22T02:37:11.069Z,97137.16
2022-11-22T02:38:18.093Z,97138.08
2022-11-22T02:39:11.072Z,97133.84
2022-11-22T02:40:13.071Z,97135.79
2022-11-22T02:41:13.068Z,97137.31
2022-11-22T02:42:11.070Z,97137.91
2022-11-22T02:43:15.072Z,97138.39
2022-11-22T02:44:11.071Z,97137.20
2022-11-22T02:45:11.072Z,97137.52
2022-11-22T02:46:13.071Z,97136.32
2022-11-22T02:47:11.067Z,97141.37
2022-11-22T02:48:11.063Z,97139.58
2022-11-22T02:49:11.059Z,97139.22
2022-11-22T02:50:11.057Z,97140.43
2022-11-22T02:51:11.059Z,97139.82
2022-11-22T02:52:11.063Z,97136.73
2022-11-22T02:53:11.067Z,97137.39
2022-11-22T02:54:11.063Z,97136.84
2022-11-22T02:55:11.058Z,97135.89
2022-11-22T02:56:11.061Z,97139.07
2022-11-22T02:57:11.057Z,97139.75
2022-11-22T02:58:11.059Z,97138.32
2022-11-22T02:59:11.057Z,97136.43
2022-11-22T03:00:11.058Z,97134.48
2022-11-22T03:01:11.077Z,97134.73
2022-11-22T03:02:11.056Z,97129.51
2022-11-22T03:03:11.060Z,97131.14
2022-11-22T03:04:11.061Z,97130.56
2022-11-22T03:05:11.056Z,97127.19
2022-11-22T03:06:11.059Z,97128.09
2022-11-22T03:07:11.110Z,97130.99
2022-11-22T03:08:11.064Z,97131.03
2022-11-22T03:09:11.062Z,97132.95
2022-11-22T03:10:11.066Z,97133.51
2022-11-22T03:11:11.057Z,97130.71
2022-11-22T03:12:11.060Z,97135.32
2022-11-22T03:13:11.070Z,97137.00
2022-11-22T03:14:11.060Z,97132.40
2022-11-22T03:15:11.060Z,97137.36
2022-11-22T03:16:11.068Z,97131.87
2022-11-22T03:17:11.058Z,97134.50
2022-11-22T03:18:11.061Z,97133.06
2022-11-22T03:19:11.066Z,97130.21
2022-11-22T03:20:11.058Z,97132.50
2022-11-22T03:21:11.063Z,97133.04
2022-11-22T03:22:11.681Z,97131.43
2022-11-22T03:23:11.057Z,97136.52
2022-11-22T03:24:11.063Z,97135.23
2022-11-22T03:25:11.069Z,97132.35
2022-11-22T03:26:11.059Z,97134.33
2022-11-22T03:27:11.063Z,97133.51
2022-11-22T03:28:11.070Z,97131.61
2022-11-22T03:29:11.059Z,97133.03
2022-11-22T03:30:11.065Z,97131.88
2022-11-22T03:31:11.068Z,97131.27
2022-11-22T03:32:11.058Z,97129.77
2022-11-22T03:33:11.066Z,97132.43
2022-11-22T03:34:11.069Z,97130.02
2022-11-22T03:35:11.060Z,97128.64
2022-11-22T03:36:11.057Z,97126.73
2022-11-22T03:37:11.064Z,97130.64
2022-11-22T03:38:11.066Z,97128.41
2022-11-22T03:39:11.057Z,97129.71
2022-11-22T03:40:11.067Z,97131.59
2022-11-22T03:41:11.062Z,97127.79
2022-11-22T03:42:11.059Z,97126.46
2022-11-22T03:43:11.065Z,97128.47
2022-11-22T03:44:11.065Z,97127.88
2022-11-22T03:45:11.061Z,97125.86
2022-11-22T03:46:17.070Z,97115.01
2022-11-22T03:47:11.063Z,97128.02
2022-11-22T03:48:11.063Z,97128.29
2022-11-22T03:49:11.064Z,97127.14
2022-11-22T03:50:11.063Z,97129.81
2022-11-22T03:51:11.065Z,97131.23
2022-11-22T03:52:11.062Z,97136.46
2022-11-22T03:53:11.065Z,97135.16
2022-11-22T03:54:11.062Z,97134.96
2022-11-22T03:55:11.061Z,97138.50
2022-11-22T03:56:11.071Z,97136.03
2022-11-22T03:57:11.060Z,97135.51
2022-11-22T03:58:11.061Z,97133.61
2022-11-22T03:59:11.065Z,97133.06
2022-11-22T04:00:11.064Z,97136.25
2022-11-22T04:01:16.365Z,97139.59
2022-11-22T04:02:13.152Z,97136.81
2022-11-22T04:03:11.060Z,97137.91
2022-11-22T04:04:11.066Z,97139.77
2022-11-22T04:05:11.071Z,97139.41
2022-11-22T04:06:11.061Z,97139.08
2022-11-22T04:07:11.108Z,97137.14
2022-11-22T04:08:11.070Z,97134.62
2022-11-22T04:09:11.101Z,97135.74
2022-11-22T04:10:11.063Z,97138.42
2022-11-22T04:11:11.067Z,97139.93
2022-11-22T04:12:11.062Z,97142.30
2022-11-22T04:13:11.064Z,97145.13
2022-11-22T04:14:15.066Z,97143.35
2022-11-22T04:15:12.061Z,97145.48
2022-11-22T04:16:11.061Z,97150.45
2022-11-22T04:17:13.072Z,97145.45
2022-11-22T04:18:13.073Z,97145.51
2022-11-22T04:19:11.061Z,97147.67
2022-11-22T04:20:21.076Z,97144.66
2022-11-22T04:21:15.073Z,97146.54
2022-11-22T04:22:11.066Z,97142.21
2022-11-22T04:23:17.066Z,97139.01
2022-11-22T04:24:15.067Z,97141.66
2022-11-22T04:25:15.066Z,97144.49
2022-11-22T04:26:11.063Z,97143.68
2022-11-22T04:27:11.066Z,97148.65
2022-11-22T04:28:11.073Z,97148.70
2022-11-22T04:29:11.064Z,97152.65
2022-11-22T04:30:12.870Z,97155.15
2022-11-22T04:31:15.068Z,97159.06
2022-11-22T04:32:15.066Z,97165.36
2022-11-22T04:33:11.063Z,97164.34
2022-11-22T04:34:11.064Z,97166.16
2022-11-22T04:35:11.073Z,97164.93
2022-11-22T04:36:13.427Z,97166.90
2022-11-22T04:37:11.067Z,97165.79
2022-11-22T04:38:11.083Z,97169.77
2022-11-22T04:39:11.064Z,97169.86
2022-11-22T04:40:11.070Z,97167.51
2022-11-22T04:41:11.072Z,97171.65
2022-11-22T04:42:15.066Z,97174.92
2022-11-22T04:43:23.068Z,97169.11
2022-11-22T04:44:15.067Z,97171.52
2022-11-22T04:45:11.068Z,97172.76
2022-11-22T04:46:11.068Z,97170.77
2022-11-22T04:47:14.064Z,97176.39
2022-11-22T04:48:11.069Z,97173.19
2022-11-22T04:49:11.068Z,97174.39
2022-11-22T04:50:15.067Z,97178.02
2022-11-22T04:51:16.068Z,97173.58
2022-11-22T04:52:15.080Z,97173.73
2022-11-22T04:53:11.073Z,97170.30
2022-11-22T04:54:11.066Z,97177.70
2022-11-22T04:55:11.070Z,97177.32
2022-11-22T04:56:11.067Z,97172.92
2022-11-22T04:57:11.063Z,97174.91
2022-11-22T04:58:11.074Z,97177.17
2022-11-22T04:59:11.068Z,97180.96
2022-11-22T05:00:11.074Z,97179.77
2022-11-22T05:01:11.139Z,97182.21
2022-11-22T05:02:11.069Z,97182.11
2022-11-22T05:03:11.068Z,97187.64
2022-11-22T05:04:11.067Z,97186.25
2022-11-22T05:05:11.068Z,97190.44
2022-11-22T05:06:14.068Z,97189.32
2022-11-22T05:07:11.122Z,97187.58
2022-11-22T05:08:11.069Z,97185.91
2022-11-22T05:09:11.065Z,97184.40
2022-11-22T05:10:11.066Z,97184.11
2022-11-22T05:11:11.071Z,97181.55
2022-11-22T05:12:11.065Z,97183.28
2022-11-22T05:13:11.067Z,97186.34
2022-11-22T05:14:11.071Z,97186.66
2022-11-22T05:15:11.066Z,97183.61
2022-11-22T05:16:11.098Z,97186.76
2022-11-22T05:17:13.462Z,97184.73
2022-11-22T05:18:11.068Z,97186.36
2022-11-22T05:19:11.161Z,97188.84
2022-11-22T05:20:11.071Z,97189.39
2022-11-22T05:21:11.066Z,97187.50
2022-11-22T05:22:11.074Z,97185.93
2022-11-22T05:23:15.071Z,97189.92
2022-11-22T05:24:11.068Z,97191.89
2022-11-22T05:25:11.069Z,97194.34
2022-11-22T05:26:11.077Z,97194.84
2022-11-22T05:27:11.067Z,97194.91
2022-11-22T05:28:11.070Z,97195.45
2022-11-22T05:29:11.080Z,97196.74
2022-11-22T05:30:11.072Z,97195.41
2022-11-22T05:31:12.071Z,97195.54
2022-11-22T05:32:11.080Z,97195.82
2022-11-22T05:33:11.066Z,97198.57
2022-11-22T05:34:11.072Z,97192.52
2022-11-22T05:35:11.077Z,97194.49
2022-11-22T05:36:11.067Z,97194.25
2022-11-22T05:37:11.071Z,97198.41
2022-11-22T05:38:11.078Z,97197.89
2022-11-22T05:39:11.066Z,97200.43
2022-11-22T05:40:11.073Z,97198.21
2022-11-22T05:41:11.080Z,97197.25
2022-11-22T05:42:11.071Z,97197.86
2022-11-22T05:43:11.071Z,97194.32
2022-11-22T05:44:11.075Z,97194.66
2022-11-22T05:45:11.074Z,97193.20
2022-11-22T05:46:14.279Z,97190.71
2022-11-22T05:47:11.069Z,97191.67
2022-11-22T05:48:11.060Z,97192.50
2022-11-22T05:49:11.058Z,97192.17
2022-11-22T05:50:11.058Z,97195.15
2022-11-22T05:51:12.061Z,97199.45
2022-11-22T05:52:11.059Z,97198.61
2022-11-22T05:53:11.059Z,97193.51
2022-11-22T05:54:11.061Z,97200.57
2022-11-22T05:55:11.057Z,97202.54
2022-11-22T05:56:14.059Z,97205.62
2022-11-22T05:57:11.061Z,97207.14
2022-11-22T05:58:11.056Z,97203.55
2022-11-22T05:59:11.058Z,97208.85
2022-11-22T06:00:11.074Z,97210.41
2022-11-22T06:01:15.059Z,97208.31
2022-11-22T06:02:11.152Z,97210.76
2022-11-22T06:03:11.067Z,97211.43
2022-11-22T06:04:11.056Z,97210.88
2022-11-22T06:05:11.061Z,97211.11
2022-11-22T06:06:11.067Z,97211.17
2022-11-22T06:07:11.154Z,97214.20
2022-11-22T06:08:11.061Z,97213.12
2022-11-22T06:09:11.068Z,97214.79
2022-11-22T06:10:11.057Z,97215.20
2022-11-22T06:11:14.061Z,97217.86
2022-11-22T06:12:11.067Z,97220.32
2022-11-22T06:13:11.058Z,97217.88
2022-11-22T06:14:11.064Z,97219.93
2022-11-22T06:15:11.068Z,97215.64
2022-11-22T06:16:11.059Z,97215.29
2022-11-22T06:17:11.065Z,97217.14
2022-11-22T06:18:11.069Z,97215.89
2022-11-22T06:19:11.062Z,97216.01
2022-11-22T06:20:11.057Z,97217.18
2022-11-22T06:21:14.069Z,97218.89
2022-11-22T06:22:11.071Z,97220.52
2022-11-22T06:23:11.058Z,97225.90
2022-11-22T06:24:11.063Z,97222.58
2022-11-22T06:25:11.061Z,97222.56
2022-11-22T06:26:11.064Z,97222.14
2022-11-22T06:27:11.063Z,97227.52
2022-11-22T06:28:11.061Z,97222.33
2022-11-22T06:29:11.058Z,97222.00
2022-11-22T06:30:11.072Z,97226.62
2022-11-22T06:31:12.062Z,97224.50
2022-11-22T06:32:11.057Z,97226.54
2022-11-22T06:33:11.065Z,97226.13
2022-11-22T06:34:11.062Z,97226.77
2022-11-22T06:35:11.060Z,97226.79
2022-11-22T06:36:17.073Z,97228.89
2022-11-22T06:37:11.064Z,97227.04
2022-11-22T06:38:11.060Z,97227.05
2022-11-22T06:39:11.062Z,97224.91
2022-11-22T06:40:11.071Z,97230.92
2022-11-22T06:41:11.061Z,97227.90
2022-11-22T06:42:11.068Z,97230.19
2022-11-22T06:43:11.071Z,97231.97
2022-11-22T06:44:11.063Z,97233.99
2022-11-22T06:45:11.063Z,97228.98
2022-11-22T06:46:11.071Z,97227.87
2022-11-22T06:47:11.061Z,97233.23
2022-11-22T06:48:11.064Z,97229.96
2022-11-22T06:49:11.065Z,97231.61
2022-11-22T06:50:11.061Z,97230.21
2022-11-22T06:51:19.063Z,97231.08
2022-11-22T06:52:11.065Z,97226.79
2022-11-22T06:53:32.402Z,97235.14
2022-11-22T06:54:15.386Z,97234.99
2022-11-22T06:55:34.515Z,97235.84
2022-11-22T06:56:13.046Z,97235.53
2022-11-22T06:57:12.071Z,97239.76
2022-11-22T06:58:11.063Z,97237.91
2022-11-22T06:59:11.074Z,97240.04
2022-11-22T07:00:11.064Z,97240.44
2022-11-22T07:01:11.120Z,97241.02
2022-11-22T07:02:12.074Z,97240.41
2022-11-22T07:03:11.060Z,97243.95
2022-11-22T07:04:11.064Z,97245.58
2022-11-22T07:05:25.069Z,97245.66
2022-11-22T07:06:13.045Z,97248.16
2022-11-22T07:07:11.103Z,97243.93
2022-11-22T07:08:14.008Z,97254.50
2022-11-22T07:09:11.065Z,97255.14
2022-11-22T07:10:11.058Z,97250.91
2022-11-22T07:11:17.075Z,97255.19
2022-11-22T07:12:11.073Z,97250.73
2022-11-22T07:13:11.065Z,97254.58
2022-11-22T07:14:11.064Z,97255.69
2022-11-22T07:15:11.066Z,97260.56
2022-11-22T07:16:11.062Z,97260.60
2022-11-22T07:17:11.065Z,97258.26
2022-11-22T07:18:11.065Z,97262.55
2022-11-22T07:19:11.062Z,97262.47
2022-11-22T07:20:11.065Z,97260.02
2022-11-22T07:21:15.066Z,97259.24
2022-11-22T07:22:11.079Z,97262.17
2022-11-22T07:23:11.066Z,97259.66
2022-11-22T07:24:11.073Z,97262.43
2022-11-22T07:25:11.065Z,97261.99
2022-11-22T07:26:13.067Z,97263.75
2022-11-22T07:27:11.067Z,97261.27
2022-11-22T07:28:11.065Z,97263.19
2022-11-22T07:29:11.061Z,97268.31
2022-11-22T07:30:11.068Z,97265.35
2022-11-22T07:31:11.068Z,97269.73
2022-11-22T07:32:11.061Z,97271.86
2022-11-22T07:33:11.073Z,97273.65
2022-11-22T07:34:11.065Z,97271.75
2022-11-22T07:35:11.061Z,97275.16
2022-11-22T07:36:17.074Z,97274.39
2022-11-22T07:37:11.066Z,97276.13
2022-11-22T07:38:11.063Z,97275.52
2022-11-22T07:39:11.066Z,97278.41
2022-11-22T07:40:11.074Z,97279.64
2022-11-22T07:41:11.064Z,97278.80
2022-11-22T07:42:11.066Z,97281.63
2022-11-22T07:43:11.068Z,97281.32
2022-11-22T07:44:11.066Z,97283.97
2022-11-22T07:45:11.066Z,97286.99
2022-11-22T07:46:19.067Z,97284.55
2022-11-22T07:47:11.064Z,97282.56
2022-11-22T07:48:11.069Z,97284.96
2022-11-22T07:49:11.076Z,97287.49
2022-11-22T07:50:11.067Z,97286.72
2022-11-22T07:51:11.062Z,97284.62
2022-11-22T07:52:11.070Z,97287.16
2022-11-22T07:53:11.067Z,97292.52
2022-11-22T07:54:13.064Z,97291.53
2022-11-22T07:55:14.322Z,97292.62
2022-11-22T07:56:11.070Z,97292.08
2022-11-22T07:57:11.064Z,97293.94
2022-11-22T07:58:11.068Z,97292.99
2022-11-22T07:59:11.074Z,97293.80
2022-11-22T08:00:11.067Z,97295.76
2022-11-22T08:01:15.122Z,97298.70
2022-11-22T08:02:12.134Z,97301.23
2022-11-22T08:03:14.396Z,97301.19
2022-11-22T08:04:13.761Z,97306.35
2022-11-22T08:05:11.073Z,97308.23
2022-11-22T08:06:11.067Z,97305.09
2022-11-22T08:07:11.100Z,97309.00
2022-11-22T08:08:11.071Z,97309.05
2022-11-22T08:09:11.096Z,97309.61
2022-11-22T08:10:11.066Z,97312.30
2022-11-22T08:11:11.069Z,97316.60
2022-11-22T08:12:11.070Z,97318.51
2022-11-22T08:13:11.067Z,97317.55
2022-11-22T08:14:11.069Z,97316.09
2022-11-22T08:15:11.070Z,97319.47
2022-11-22T08:16:11.065Z,97316.36
2022-11-22T08:17:11.070Z,97317.58
2022-11-22T08:18:11.070Z,97317.37
2022-11-22T08:19:11.067Z,97320.61
2022-11-22T08:20:11.070Z,97319.98
2022-11-22T08:21:14.150Z,97321.79
2022-11-22T08:22:11.070Z,97319.73
2022-11-22T08:23:11.071Z,97317.88
2022-11-22T08:24:11.077Z,97316.38
2022-11-22T08:25:15.068Z,97312.38
2022-11-22T08:26:11.073Z,97311.03
2022-11-22T08:27:11.073Z,97309.24
2022-11-22T08:28:11.071Z,97309.25
2022-11-22T08:29:14.277Z,97308.25
2022-11-22T08:30:11.069Z,97309.05
2022-11-22T08:31:15.081Z,97305.13
2022-11-22T08:32:11.070Z,97310.22
2022-11-22T08:33:11.067Z,97311.76
2022-11-22T08:34:11.076Z,97315.74
2022-11-22T08:35:11.079Z,97319.63
2022-11-22T08:36:11.066Z,97318.87
2022-11-22T08:37:11.070Z,97319.59
2022-11-22T08:38:11.069Z,97319.04
2022-11-22T08:39:11.069Z,97320.46
2022-11-22T08:40:11.070Z,97321.28
2022-11-22T08:41:11.082Z,97318.60
2022-11-22T08:42:11.069Z,97319.07
2022-11-22T08:43:11.070Z,97318.27
2022-11-22T08:44:11.072Z,97314.56
2022-11-22T08:45:11.069Z,97314.13
2022-11-22T08:46:11.074Z,97314.05
2022-11-22T08:47:11.071Z,97313.28
2022-11-22T08:48:11.058Z,97319.36
2022-11-22T08:49:12.057Z,97318.81
2022-11-22T08:50:11.065Z,97317.62
2022-11-22T08:51:11.067Z,97321.41
2022-11-22T08:52:11.064Z,97321.83
2022-11-22T08:53:11.072Z,97321.31
2022-11-22T08:54:13.057Z,97324.76
2022-11-22T08:55:11.070Z,97319.93
2022-11-22T08:56:12.076Z,97327.68
2022-11-22T08:57:11.058Z,97327.05
2022-11-22T08:58:11.057Z,97330.19
2022-11-22T08:59:11.126Z,97335.20
2022-11-22T09:00:11.062Z,97336.49
2022-11-22T09:01:17.138Z,97337.58
2022-11-22T09:02:11.063Z,97335.01
2022-11-22T09:03:11.065Z,97336.92
2022-11-22T09:04:11.056Z,97337.94
2022-11-22T09:05:11.062Z,97338.88
2022-11-22T09:08:26.605Z,97343.55
2022-11-22T09:09:42.962Z,97342.78
2022-11-22T09:10:13.037Z,97346.30
2022-11-22T09:11:14.058Z,97349.21
2022-11-22T09:12:11.066Z,97351.74
2022-11-22T09:13:11.067Z,97354.67
2022-11-22T09:14:11.058Z,97352.23
2022-11-22T09:15:11.062Z,97350.98
2022-11-22T09:16:14.070Z,97353.24
2022-11-22T09:17:16.118Z,97351.66
2022-11-22T09:18:13.059Z,97354.16
2022-11-22T09:19:11.062Z,97356.48
2022-11-22T09:20:11.063Z,97356.60
2022-11-22T09:21:14.061Z,97357.04
2022-11-22T09:22:11.062Z,97356.75
2022-11-22T09:23:11.071Z,97357.23
2022-11-22T09:24:11.060Z,97353.68
2022-11-22T09:25:11.062Z,97355.66
2022-11-22T09:26:14.064Z,97356.77
2022-11-22T09:27:11.059Z,97355.67
2022-11-22T09:28:11.063Z,97355.55
2022-11-22T09:29:11.067Z,97348.92
2022-11-22T09:30:11.059Z,97347.07
2022-11-22T09:31:14.063Z,97348.48
2022-11-22T09:32:13.063Z,97349.26
2022-11-22T09:33:11.061Z,97350.24
2022-11-22T09:34:11.061Z,97355.41
2022-11-22T09:35:11.075Z,97356.56
2022-11-22T09:36:14.065Z,97355.50
2022-11-22T09:37:11.063Z,97358.97
2022-11-22T09:38:12.060Z,97357.13
2022-11-22T09:39:11.069Z,97358.21
2022-11-22T09:40:11.061Z,97358.10
2022-11-22T09:41:22.063Z,97361.80
2022-11-22T09:42:23.077Z,97361.24
2022-11-22T09:43:21.098Z,97364.06
2022-11-22T09:44:19.077Z,97363.18
2022-11-22T09:45:19.060Z,97367.08
2022-11-22T09:46:19.058Z,97363.44
2022-11-22T09:47:19.062Z,97368.43
2022-11-22T09:48:19.071Z,97367.72
2022-11-22T09:49:19.065Z,97370.25
2022-11-22T09:50:21.093Z,97367.36
2022-11-22T09:51:19.062Z,97368.02
2022-11-22T09:52:23.087Z,97369.19
2022-11-22T09:53:18.063Z,97368.37
2022-11-22T09:54:15.073Z,97370.08
2022-11-22T09:55:24.150Z,97372.35
2022-11-22T09:56:13.060Z,97375.90
2022-11-22T09:57:19.064Z,97374.46
2022-11-22T09:58:19.077Z,97372.23
2022-11-22T09:59:21.066Z,97374.51
2022-11-22T10:00:19.193Z,97370.39
2022-11-22T10:01:18.193Z,97375.50
2022-11-22T10:02:19.128Z,97374.51
2022-11-22T10:03:20.106Z,97378.98
2022-11-22T10:04:19.063Z,97378.13
2022-11-22T10:05:19.065Z,97381.43
2022-11-22T10:06:16.063Z,97379.60
2022-11-22T10:07:20.119Z,97380.16
2022-11-22T10:08:19.072Z,97381.43
2022-11-22T10:09:19.064Z,97384.05
2022-11-22T10:10:19.154Z,97381.17
2022-11-22T10:11:19.069Z,97381.05
2022-11-22T10:12:21.093Z,97381.43
2022-11-22T10:13:23.108Z,97382.10
2022-11-22T10:14:23.092Z,97381.20
2022-11-22T10:15:19.073Z,97381.02
2022-11-22T10:16:20.063Z,97384.46
2022-11-22T10:17:19.065Z,97387.09
2022-11-22T10:18:17.063Z,97385.53
2022-11-22T10:19:20.073Z,97389.41
2022-11-22T10:20:19.066Z,97391.02
2022-11-22T10:21:12.063Z,97389.63
2022-11-22T10:22:14.065Z,97389.15
2022-11-22T10:23:16.074Z,97390.30
2022-11-22T10:24:14.067Z,97394.88
2022-11-22T10:25:19.061Z,97397.23
2022-11-22T10:26:19.066Z,97393.51
2022-11-22T10:27:14.076Z,97395.53
2022-11-22T10:28:19.066Z,97395.24
2022-11-22T10:29:21.083Z,97398.25
2022-11-22T10:30:16.072Z,97400.71
2022-11-22T10:31:21.096Z,97403.92
2022-11-22T10:32:19.072Z,97400.88
2022-11-22T10:33:22.065Z,97407.47
2022-11-22T10:34:19.067Z,97408.34
2022-11-22T10:35:19.096Z,97409.75
2022-11-22T10:36:19.075Z,97409.14
2022-11-22T10:37:19.090Z,97411.04
2022-11-22T10:38:19.068Z,97411.30
2022-11-22T10:39:19.064Z,97414.54
2022-11-22T10:40:22.066Z,97416.29
2022-11-22T10:41:19.074Z,97413.73
2022-11-22T10:42:19.068Z,97414.22
2022-11-22T10:43:22.069Z,97415.92
2022-11-22T10:44:21.078Z,97414.25
2022-11-22T10:45:22.070Z,97416.32
2022-11-22T10:46:22.068Z,97420.22
2022-11-22T10:47:19.075Z,97422.54
2022-11-22T10:48:21.070Z,97426.82
2022-11-22T10:49:21.087Z,97424.46
2022-11-22T10:50:19.067Z,97425.08
2022-11-22T10:51:19.073Z,97426.48
2022-11-22T10:52:19.076Z,97424.27
2022-11-22T10:53:19.070Z,97421.70
2022-11-22T10:54:19.069Z,97421.43
2022-11-22T10:55:19.105Z,97426.53
2022-11-22T10:56:19.068Z,97425.63
2022-11-22T10:57:19.083Z,97425.48
2022-11-22T10:58:21.071Z,97421.83
2022-11-22T10:59:22.054Z,97424.35
2022-11-22T11:00:21.748Z,97426.28
2022-11-22T11:01:23.193Z,97428.95
2022-11-22T11:02:19.068Z,97429.84
2022-11-22T11:03:19.082Z,97432.59
2022-11-22T11:04:11.200Z,97432.93
2022-11-22T11:05:16.066Z,97433.49
2022-11-22T11:06:29.482Z,97432.88
2022-11-22T11:07:22.148Z,97430.05
2022-11-22T11:08:39.351Z,97433.59
2022-11-22T11:10:09.070Z,97434.95
2022-11-22T11:10:27.517Z,97434.29
2022-11-22T11:11:13.040Z,97431.43
2022-11-22T11:12:19.078Z,97432.29
2022-11-22T11:13:17.072Z,97433.12
2022-11-22T11:14:22.072Z,97433.32
2022-11-22T11:15:19.073Z,97430.32
2022-11-22T11:16:17.073Z,97430.06
2022-11-22T11:17:16.072Z,97430.66
2022-11-22T11:18:15.070Z,97433.34
2022-11-22T11:19:17.069Z,97433.16
2022-11-22T11:20:22.074Z,97429.89
2022-11-22T11:21:15.101Z,97432.17
2022-11-22T11:22:30.405Z,97427.59
2022-11-22T11:23:15.231Z,97426.24
2022-11-22T11:24:15.071Z,97425.09
2022-11-22T11:25:19.080Z,97426.41
2022-11-22T11:26:20.472Z,97426.49
2022-11-22T11:27:11.071Z,97422.31
2022-11-22T11:28:15.072Z,97421.21
2022-11-22T11:29:19.081Z,97422.36
2022-11-22T11:30:13.075Z,97417.91
2022-11-22T11:31:11.071Z,97414.22
2022-11-22T11:32:14.186Z,97410.37
2022-11-22T11:33:19.072Z,97411.89
2022-11-22T11:34:19.071Z,97410.74
2022-11-22T11:35:15.072Z,97412.76
2022-11-22T11:36:19.072Z,97409.58
2022-11-22T11:37:17.080Z,97413.77
2022-11-22T11:38:19.075Z,97409.02
2022-11-22T11:39:19.072Z,97409.68
2022-11-22T11:40:19.068Z,97410.77
2022-11-22T11:41:18.073Z,97408.96
2022-11-22T11:42:19.087Z,97407.91
2022-11-22T11:43:19.075Z,97410.37
2022-11-22T11:44:19.073Z,97412.12
2022-11-22T11:45:19.075Z,97412.39
2022-11-22T11:46:18.081Z,97412.89